Latest Weather Observations for Charlton

IDV60801

Issued at 4:32 pm EST Thursday 25 May 2017 (issued every 30 minutes, with the page automatically refreshed every 10 minutes)

About weather observations | Map of weather stations | Latest weather observations for VIC | Other Formats
Station Details ID: 080128 Name: CHARLTON Lat: -36.28 Lon: 143.33 Height: 131.7 m
Data from the previous 72 hours. | See also: Recent months at Charlton
Date/Time
EST
Temp
°C
App
Temp
°C
Dew
Point
°C
Rel
Hum
%
Delta-T
°C
Wind Press
QNH
hPa
Press
MSL
hPa
Rain since
9am
mm
Dir  Spd
km/h
Gust
km/h
Spd
kts
Gust
kts
25/04:30pm 16.7 14.3 9.9 64 3.6 WNW 13 19 7 10 1020.0 1020.0 0.2
25/04:00pm 16.9 14.0 9.8 63 3.7 WNW 15 22 8 12 1019.9 1019.9 0.2
25/03:30pm 17.2 14.8 9.9 62 3.9 WNW 13 20 7 11 1019.8 1019.8 0.2
25/03:00pm 17.1 14.2 9.8 62 3.9 WNW 15 22 8 12 1019.8 1019.8 0.2
25/02:30pm 16.8 13.9 9.5 62 3.8 WNW 15 24 8 13 1020.0 1020.0 0.2
25/02:00pm 17.1 13.8 9.5 61 4.0 WNW 17 26 9 14 1020.2 1020.2 0.2
25/01:30pm 16.7 13.6 8.9 60 4.0 WNW 15 28 8 15 1020.4 1020.4 0.2
25/01:00pm 16.9 13.6 9.6 62 3.8 NW 17 24 9 13 1020.6 1020.6 0.2
25/12:30pm 17.7 14.4 9.6 59 4.3 NW 17 28 9 15 1020.9 1020.9 0.2
25/12:00pm 16.5 13.9 9.4 63 3.7 NW 13 26 7 14 1021.2 1021.2 0.2
25/11:30am 16.1 12.7 9.3 64 3.5 NW 17 28 9 15 1021.8 1021.8 0.0
25/11:00am 15.2 12.8 10.2 72 2.6 NW 13 22 7 12 1022.3 1022.3 0.0
25/10:30am 14.5 12.4 11.1 80 1.8 NW 13 20 7 11 1022.2 1022.2 0.0
25/10:00am 13.6 12.1 12.0 90 0.9 NW 11 15 6 8 1022.4 1022.4 0.0
25/09:30am 12.7 11.8 12.5 99 0.1 NW 9 15 5 8 1022.5 1022.6 0.0
25/09:00am 12.2 11.5 12.0 99 0.1 NNW 7 11 4 6 1022.4 1022.4 0.0
25/08:30am 11.9 11.4 11.9 100 0.0 NNW 6 9 3 5 1022.0 1022.0 0.0
25/08:00am 11.3 11.3 11.3 100 0.0 N 2 7 1 4 1021.9 1021.9 0.0
25/07:30am 11.2 11.6 11.2 100 0.0 CALM 0 0 0 0 1021.7 1021.7 0.0
25/07:00am 11.1 11.1 11.1 100 0.0 NNW 2 6 1 3 1021.5 1021.5 0.0
25/06:30am 11.1 11.1 11.1 100 0.0 WNW 2 6 1 3 1021.3 1021.3 0.0
25/06:00am 10.8 11.1 10.8 100 0.0 CALM 0 4 0 2 1021.0 1021.0 0.0
25/05:30am 11.0 10.1 10.8 99 0.1 NNW 6 7 3 4 1020.9 1020.9 0.0
25/05:00am 11.2 10.8 11.0 99 0.1 NW 4 7 2 4 1020.9 1020.9 0.0
25/04:30am 11.1 10.3 10.9 99 0.1 WNW 6 7 3 4 1020.9 1020.9 0.0
25/04:00am 11.0 10.1 10.8 99 0.1 NW 6 9 3 5 1020.9 1020.9 0.0
25/03:30am 11.5 10.4 10.7 95 0.4 WNW 7 9 4 5 1021.1 1021.1 0.0
25/03:00am 11.6 10.5 10.5 93 0.6 W 7 9 4 5 1021.1 1021.1 0.0
25/02:30am 11.8 11.5 10.2 90 0.8 WNW 2 7 1 4 1021.1 1021.1 0.0
25/02:00am 11.9 10.8 10.1 89 0.9 WNW 6 7 3 4 1021.1 1021.1 0.0
25/01:30am 12.0 11.0 10.2 89 0.9 W 6 9 3 5 1021.0 1021.0 0.0
25/01:00am 12.2 10.9 10.1 87 1.1 W 7 11 4 6 1021.1 1021.1 0.0
25/12:30am 12.1 11.1 10.2 88 1.0 WNW 6 9 3 5 1021.2 1021.2 0.0
25/12:00am 11.9 10.8 10.0 88 1.0 W 6 7 3 4 1021.4 1021.4 0.0
 
Date/Time
EST
Temp
°C
App
Temp
°C
Dew
Point
°C
Rel
Hum
%
Delta-T
°C
Wind Press
QNH
hPa
Press
MSL
hPa
Rain since
9am
mm
Dir  Spd
km/h
Gust
km/h
Spd
kts
Gust
kts
24/11:30pm 11.9 10.6 9.8 87 1.1 WNW 7 9 4 5 1021.5 1021.5 0.0
24/11:00pm 12.2 10.9 9.8 85 1.2 WNW 7 11 4 6 1021.4 1021.4 0.0
24/10:30pm 12.5 10.9 10.2 86 1.2 W 9 15 5 8 1021.3 1021.3 0.0
24/10:00pm 12.1 10.8 9.8 86 1.2 W 7 13 4 7 1021.1 1021.1 0.0
24/09:30pm 12.2 10.8 9.4 83 1.4 W 7 11 4 6 1021.3 1021.3 0.0
24/09:00pm 12.1 10.7 9.5 84 1.3 WNW 7 9 4 5 1021.1 1021.1 0.0
24/08:30pm 11.9 10.6 9.1 83 1.4 NW 6 7 3 4 1021.0 1021.0 0.0
24/08:00pm 11.9 10.3 8.9 82 1.5 WNW 7 9 4 5 1020.9 1020.9 0.0
24/07:30pm 12.7 11.2 9.0 78 1.9 W 7 9 4 5 1020.5 1020.5 0.0
24/07:00pm 13.0 11.7 9.3 78 1.9 W 6 9 3 5 1020.3 1020.3 0.0
24/06:30pm 12.9 11.4 9.0 77 2.0 W 7 9 4 5 1020.2 1020.2 0.0
24/06:00pm 13.6 11.7 8.9 73 2.4 WSW 9 15 5 8 1020.1 1020.1 0.0
24/05:30pm 14.4 12.5 9.0 70 2.8 WSW 9 15 5 8 1020.0 1020.0 0.0
24/05:00pm 14.7 12.3 8.6 67 3.1 WSW 11 15 6 8 1019.5 1019.5 0.0
24/04:30pm 15.0 12.1 8.3 64 3.4 WSW 13 20 7 11 1019.3 1019.3 0.0
24/04:00pm 16.3 14.3 8.8 61 3.9 SW 9 15 5 8 1019.0 1019.0 0.0
24/03:30pm 16.8 13.5 8.0 56 4.5 W 15 22 8 12 1018.6 1018.6 0.0
24/03:00pm 14.5 11.5 7.8 64 3.3 WSW 13 22 7 12 1018.5 1018.5 0.0
24/02:30pm 15.1 11.8 7.9 62 3.6 WSW 15 28 8 15 1018.2 1018.3 0.0
24/02:00pm 14.5 11.4 8.7 68 2.9 WSW 15 26 8 14 1018.1 1018.2 0.0
24/01:30pm 15.8 12.2 8.5 62 3.7 WSW 17 30 9 16 1018.2 1018.3 0.0
24/01:00pm 16.5 13.4 10.4 67 3.2 WSW 17 26 9 14 1018.1 1018.2 0.0
24/12:30pm 15.3 12.5 10.1 71 2.7 WSW 15 24 8 13 1018.5 1018.5 0.0
24/12:00pm 14.8 11.3 10.2 74 2.4 WSW 19 30 10 16 1018.7 1018.7 0.0
24/11:30am 14.7 11.7 10.5 76 2.2 WSW 17 28 9 15 1018.8 1018.8 0.0
24/11:00am 13.9 11.9 11.4 85 1.3 WSW 13 22 7 12 1018.7 1018.7 0.0
24/10:30am 13.1 10.5 10.8 86 1.2 WSW 15 28 8 15 1018.6 1018.6 0.0
24/10:00am 12.5 9.2 10.9 90 0.8 WSW 19 33 10 18 1018.4 1018.4 0.0
24/09:30am 12.2 9.4 11.3 94 0.5 W 17 26 9 14 1017.9 1018.0 0.0
24/09:00am 12.2 10.6 11.7 97 0.3 WNW 11 20 6 11 1017.6 1017.7 0.2
24/08:30am 11.1 8.9 10.9 99 0.1 WNW 13 22 7 12 1017.2 1017.3 0.2
24/08:00am 10.4 8.4 10.2 99 0.1 WNW 11 17 6 9 1017.1 1017.2 0.2
24/07:30am 10.3 7.9 10.1 99 0.1 WNW 13 20 7 11 1016.6 1016.7 0.2
24/07:00am 9.7 7.2 9.6 99 0.1 WNW 13 24 7 13 1016.2 1016.3 0.2
24/06:30am 9.5 6.9 9.4 99 0.0 WNW 13 19 7 10 1015.9 1015.9 0.2
24/06:00am 9.6 7.0 9.5 99 0.1 WNW 13 19 7 10 1015.5 1015.5 0.2
24/05:30am 10.0 7.6 9.9 99 0.1 WNW 13 19 7 10 1015.2 1015.2 0.2
24/05:00am 10.1 7.2 9.8 98 0.2 WNW 15 20 8 11 1014.9 1014.9 0.2
24/04:30am 9.9 7.7 9.4 97 0.3 WNW 11 17 6 9 1014.8 1014.8 0.2
24/04:00am 9.9 7.2 9.0 94 0.4 WNW 13 19 7 10 1014.7 1014.7 0.2
24/03:30am 10.0 7.3 8.9 93 0.5 WNW 13 20 7 11 1014.7 1014.7 0.2
24/03:00am 10.4 7.4 9.2 92 0.6 WNW 15 26 8 14 1014.7 1014.7 0.2
24/02:30am 10.7 8.1 9.3 91 0.7 W 13 20 7 11 1014.8 1014.8 0.2
24/02:00am 10.3 7.2 8.9 91 0.7 WNW 15 24 8 13 1014.7 1014.7 0.2
24/01:30am 10.3 7.9 8.6 89 0.8 WNW 11 15 6 8 1014.8 1014.8 0.2
24/01:00am 10.4 7.9 8.0 85 1.2 WNW 11 17 6 9 1014.9 1014.9 0.2
24/12:30am 11.1 8.3 8.5 84 1.3 WNW 13 22 7 12 1015.0 1015.0 0.2
24/12:00am 11.0 8.2 8.4 84 1.3 WNW 13 17 7 9 1015.1 1015.1 0.2
 
Date/Time
EST
Temp
°C
App
Temp
°C
Dew
Point
°C
Rel
Hum
%
Delta-T
°C
Wind Press
QNH
hPa
Press
MSL
hPa
Rain since
9am
mm
Dir  Spd
km/h
Gust
km/h
Spd
kts
Gust
kts
23/11:30pm 10.7 8.3 8.6 87 1.0 WNW 11 15 6 8 1015.1 1015.1 0.2
23/11:00pm 10.8 8.9 8.9 88 0.9 NW 9 11 5 6 1015.3 1015.3 0.2
23/10:30pm 11.2 9.9 10.0 92 0.6 NW 7 9 4 5 1015.3 1015.3 0.0
23/10:00pm 12.0 11.0 10.9 93 0.6 NW 7 11 4 6 1015.4 1015.4 0.0
23/09:30pm 12.8 11.9 12.5 98 0.2 NW 9 13 5 7 1015.4 1015.4 0.0
23/09:00pm 12.4 11.8 12.4 100 0.0 NNW 7 9 4 5 1015.2 1015.2 0.0
23/08:30pm 11.3 10.9 11.1 99 0.1 NNW 4 7 2 4 1015.1 1015.1 0.0
23/08:00pm 11.4 11.0 11.2 99 0.1 NW 4 7 2 4 1015.0 1015.0 0.0
23/07:30pm 11.6 12.0 11.4 99 0.1 CALM 0 0 0 0 1014.8 1014.8 0.0
23/07:00pm 11.8 12.2 11.3 97 0.3 CALM 0 0 0 0 1014.6 1014.6 0.0
23/06:30pm 12.6 13.2 11.8 95 0.4 CALM 0 0 0 0 1014.5 1014.5 0.0
23/06:00pm 13.2 13.6 11.1 87 1.1 CALM 0 0 0 0 1014.6 1014.6 0.0
23/05:30pm 15.2 14.9 11.6 79 2.0 WNW 4 7 2 4 1014.6 1014.6 0.0
23/05:00pm 16.9 16.1 11.8 72 2.8 WNW 7 13 4 7 1014.5 1014.5 0.0
23/04:30pm 17.9 16.4 11.9 68 3.3 W 11 19 6 10 1014.3 1014.3 0.0
23/04:00pm 19.3 17.9 12.3 64 3.9 WNW 11 20 6 11 1014.2 1014.2 0.0
23/03:30pm 17.6 16.8 11.6 68 3.3 NW 7 11 4 6 1014.1 1014.1 0.0
23/03:00pm 19.0 17.9 12.0 64 3.9 NNW 9 13 5 7 1014.3 1014.3 0.0
23/02:30pm 19.0 17.5 11.8 63 4.0 NNW 11 19 6 10 1014.5 1014.5 0.0
23/02:00pm 18.8 17.4 10.9 60 4.3 NNW 9 17 5 9 1015.0 1015.0 0.0
23/01:30pm 19.1 16.8 10.6 58 4.6 N 13 20 7 11 1015.2 1015.2 0.0
23/01:00pm 19.0 17.5 10.6 58 4.6 NNW 9 15 5 8 1015.6 1015.6 0.0
23/12:30pm 18.2 17.0 11.5 65 3.7 NNW 9 13 5 7 1015.8 1015.8 0.0
23/12:00pm 18.5 17.7 11.1 62 4.0 NNW 6 11 3 6 1016.3 1016.4 0.0
23/11:30am 17.8 17.3 12.0 69 3.2 NE 6 9 3 5 1016.8 1016.9 0.0
23/11:00am 16.6 15.7 12.6 77 2.2 NE 9 11 5 6 1017.5 1017.6 0.0
23/10:30am 16.0 14.4 11.6 75 2.4 NNE 11 15 6 8 1018.0 1018.1 0.0
23/10:00am 15.3 14.3 12.4 83 1.6 NNE 9 13 5 7 1017.6 1017.7 0.0
23/09:30am 13.7 12.6 11.9 89 1.0 NE 9 13 5 7 1017.7 1017.8 0.0
23/09:00am 12.0 11.4 11.8 99 0.1 NNE 6 7 3 4 1017.9 1018.0 0.0
23/08:30am 11.0 11.3 10.8 99 0.1 CALM 0 6 0 3 1017.7 1017.8 0.0
23/08:00am 11.1 10.3 10.9 99 0.1 S 6 7 3 4 1017.2 1017.3 0.0
23/07:30am 11.2 9.4 11.0 99 0.1 NE 11 17 6 9 1017.2 1017.3 0.0
23/07:00am 11.1 8.5 10.8 98 0.2 NE 15 20 8 11 1018.0 1018.1 0.0
23/06:30am 11.0 9.5 10.5 97 0.3 NNE 9 15 5 8 1018.2 1018.3 0.0
23/06:00am 11.4 10.2 10.3 93 0.6 NNE 7 15 4 8 1018.5 1018.5 0.0
23/05:30am 12.1 9.8 10.3 89 0.9 NNE 13 19 7 10 1018.4 1018.4 0.0
23/05:00am 12.3 10.6 10.0 86 1.2 SSW 9 17 5 9 1017.1 1017.2 0.0
23/04:30am 12.0 10.3 9.7 86 1.2 SSW 9 15 5 8 1017.3 1017.4 0.0
23/04:00am 13.0 11.4 8.7 75 2.2 NNW 7 9 4 5 1018.1 1018.2 0.0
23/03:30am 13.0 11.1 8.9 76 2.1 NNE 9 15 5 8 1017.8 1017.9 0.0
23/03:00am 13.2 11.6 8.9 75 2.2 NNE 7 13 4 7 1017.2 1017.3 0.0
23/02:30am 13.4 11.8 8.7 73 2.4 NNE 7 15 4 8 1017.2 1017.3 0.0
23/02:00am 13.5 10.8 8.8 73 2.4 NNE 13 19 7 10 1017.4 1017.5 0.0
23/01:30am 13.7 10.9 8.7 72 2.5 NE 13 20 7 11 1017.2 1017.3 0.0
23/01:00am 13.4 10.7 8.9 74 2.3 NE 13 17 7 9 1017.3 1017.4 0.0
23/12:30am 13.1 10.8 9.0 76 2.1 NE 11 17 6 9 1017.8 1017.9 0.0
23/12:00am 12.9 10.7 9.2 78 1.9 NE 11 15 6 8 1017.9 1018.0 0.0
 
Date/Time
EST
Temp
°C
App
Temp
°C
Dew
Point
°C
Rel
Hum
%
Delta-T
°C
Wind Press
QNH
hPa
Press
MSL
hPa
Rain since
9am
mm
Dir  Spd
km/h
Gust
km/h
Spd
kts
Gust
kts
22/11:30pm 13.3 11.1 9.4 77 2.0 NE 11 15 6 8 1018.1 1018.2 0.0
22/11:00pm 13.7 11.1 9.4 75 2.2 NE 13 19 7 10 1018.0 1018.1 0.0
22/10:30pm 14.3 10.9 9.3 72 2.6 NNE 17 24 9 13 1017.8 1017.9 0.0
22/10:00pm 14.5 11.6 9.7 73 2.5 NE 15 22 8 12 1017.5 1017.6 0.0
22/09:30pm 14.0 11.1 9.8 76 2.2 NE 15 22 8 12 1017.6 1017.7 0.0
22/09:00pm 14.3 11.9 9.9 75 2.3 NNE 13 17 7 9 1018.2 1018.3 0.0
22/08:30pm 14.5 12.1 10.1 75 2.3 NE 13 22 7 12 1017.8 1017.9 0.0
22/08:00pm 14.7 12.4 10.3 75 2.3 NNE 13 19 7 10 1017.6 1017.7 0.0
22/07:30pm 14.9 12.9 10.3 74 2.4 NE 11 19 6 10 1017.6 1017.7 0.0
22/07:00pm 15.1 13.5 10.3 73 2.5 NE 9 19 5 10 1017.5 1017.6 0.0
22/06:30pm 15.6 13.3 10.4 71 2.8 NNE 13 20 7 11 1017.5 1017.6 0.0
22/06:00pm 16.3 13.6 10.4 68 3.1 NNE 15 20 8 11 1017.5 1017.6 0.0
22/05:30pm 17.0 14.4 10.6 66 3.4 NNE 15 20 8 11 1017.3 1017.4 0.0
22/05:00pm 17.6 15.4 10.9 65 3.6 NNE 13 22 7 12 1017.6 1017.7 0.0

Other Formats:

Comma delimited format used in spreadsheet applications
http://www.bom.gov.au/fwo/IDV60801/IDV60801.94839.axf

JavaScript Object Notation format (JSON) in row-major order
http://www.bom.gov.au/fwo/IDV60801/IDV60801.94839.json